Airports

 

 

Airport Name Latest METAR Visual Conditions
Atlantic City Int. (ACY) KACY 152354Z 08005KT 10SM CLR 21/15 A2997 RMK AO2 SLP149 T02110150 10267 20211 53004 VFR
Baltimore International Airport (BWI) KBWI 152354Z 27003KT 10SM FEW050 FEW140 SCT250 22/16 A2995 RMK AO2 SLP139 T02170156 10272 20217 53000 VFR
Washington National Airport (DCA) KDCA 152352Z 34008KT 10SM SCT024 BKN080 OVC100 22/17 A2996 RMK AO2 SLP146 60000 T02170167 10250 20217 53001 VFR
Dulles International Airport (IAD) KIAD 152352Z 31005KT 10SM BKN080 BKN120 BKN160 19/16 A2997 RMK AO2 SLP147 T01940161 10217 20194 58000 VFR
Norfolk International Airport (ORF) KORF 152351Z 04003KT 10SM FEW120 21/16 A2992 RMK AO2 SLP133 60002 T02110161 10228 20206 55003 VFR
Raleigh International Airport (RDU) KRDU 152351Z 06006KT 10SM FEW010 BKN015 BKN050 OVC250 22/19 A2992 RMK AO2 SLP126 BKN015 V SCT T02220189 10272 20222 51013 MVFR
Richmond International Airport (RIC) KRIC 152354Z 01004KT 10SM FEW035 BKN080 BKN110 BKN300 19/17 A2995 RMK AO2 SLP145 60001 T01940167 10217 20189 55001 VFR
Roanoke Regional Airport (ROA) KROA 152354Z 14005KT 2 1/2SM BR BKN007 OVC015 18/17 A2999 RMK AO2 SFC VIS 4 RAE16 SLP147 P0002 60004 T01830172 10200 20183 53013 IFR